sensor_id;sensor_type;location;lat;lon;timestamp;P1;durP1;ratioP1;P2;durP2;ratioP2
13475;SDS011;6810;63.824;20.288;2023-07-29T00:00:09;1.60;;;1.50;;
13475;SDS011;6810;63.824;20.288;2023-07-29T00:02:56;3.27;;;1.77;;
13475;SDS011;6810;63.824;20.288;2023-07-29T00:05:44;3.27;;;1.60;;
13475;SDS011;6810;63.824;20.288;2023-07-29T00:08:31;2.97;;;1.60;;
13475;SDS011;6810;63.824;20.288;2023-07-29T00:11:18;1.97;;;1.80;;
13475;SDS011;6810;63.824;20.288;2023-07-29T00:14:05;3.53;;;1.70;;
13475;SDS011;6810;63.824;20.288;2023-07-29T00:16:52;1.77;;;1.67;;
13475;SDS011;6810;63.824;20.288;2023-07-29T00:19:39;2.87;;;1.60;;
13475;SDS011;6810;63.824;20.288;2023-07-29T00:22:27;1.93;;;1.73;;
13475;SDS011;6810;63.824;20.288;2023-07-29T00:25:14;2.90;;;1.80;;
13475;SDS011;6810;63.824;20.288;2023-07-29T00:28:01;2.33;;;2.13;;
13475;SDS011;6810;63.824;20.288;2023-07-29T00:30:49;2.47;;;2.00;;
13475;SDS011;6810;63.824;20.288;2023-07-29T00:33:36;2.20;;;2.00;;
13475;SDS011;6810;63.824;20.288;2023-07-29T00:36:23;2.20;;;1.83;;
13475;SDS011;6810;63.824;20.288;2023-07-29T00:39:11;1.70;;;1.60;;
13475;SDS011;6810;63.824;20.288;2023-07-29T00:41:58;1.87;;;1.60;;
13475;SDS011;6810;63.824;20.288;2023-07-29T00:44:47;2.27;;;1.90;;
13475;SDS011;6810;63.824;20.288;2023-07-29T00:47:34;2.00;;;1.90;;
13475;SDS011;6810;63.824;20.288;2023-07-29T00:50:21;1.90;;;1.80;;
13475;SDS011;6810;63.824;20.288;2023-07-29T00:53:09;1.60;;;1.50;;
13475;SDS011;6810;63.824;20.288;2023-07-29T00:55:56;2.37;;;1.80;;
13475;SDS011;6810;63.824;20.288;2023-07-29T00:58:43;1.80;;;1.70;;
13475;SDS011;6810;63.824;20.288;2023-07-29T01:01:30;2.73;;;1.73;;
13475;SDS011;6810;63.824;20.288;2023-07-29T01:04:18;2.23;;;1.83;;
13475;SDS011;6810;63.824;20.288;2023-07-29T01:13:40;2.37;;;1.80;;
13475;SDS011;6810;63.824;20.288;2023-07-29T01:16:42;2.60;;;1.90;;
13475;SDS011;6810;63.824;20.288;2023-07-29T01:19:48;1.80;;;1.70;;
13475;SDS011;6810;63.824;20.288;2023-07-29T01:22:46;2.20;;;2.00;;
13475;SDS011;6810;63.824;20.288;2023-07-29T01:25:34;4.30;;;2.10;;
13475;SDS011;6810;63.824;20.288;2023-07-29T01:28:22;2.07;;;1.87;;
13475;SDS011;6810;63.824;20.288;2023-07-29T01:31:12;2.47;;;2.10;;
13475;SDS011;6810;63.824;20.288;2023-07-29T01:34:06;2.00;;;1.90;;
13475;SDS011;6810;63.824;20.288;2023-07-29T01:37:04;2.90;;;2.40;;
13475;SDS011;6810;63.824;20.288;2023-07-29T01:39:56;2.00;;;1.83;;
13475;SDS011;6810;63.824;20.288;2023-07-29T01:42:45;3.17;;;2.03;;
13475;SDS011;6810;63.824;20.288;2023-07-29T01:45:32;1.77;;;1.67;;
13475;SDS011;6810;63.824;20.288;2023-07-29T01:48:19;2.63;;;2.00;;
13475;SDS011;6810;63.824;20.288;2023-07-29T01:51:06;2.23;;;2.03;;
13475;SDS011;6810;63.824;20.288;2023-07-29T01:53:54;1.90;;;1.80;;
13475;SDS011;6810;63.824;20.288;2023-07-29T01:56:41;2.33;;;2.13;;
13475;SDS011;6810;63.824;20.288;2023-07-29T01:59:28;2.10;;;1.80;;
13475;SDS011;6810;63.824;20.288;2023-07-29T02:02:15;3.13;;;2.50;;
13475;SDS011;6810;63.824;20.288;2023-07-29T02:05:02;2.93;;;2.13;;
13475;SDS011;6810;63.824;20.288;2023-07-29T02:07:50;2.50;;;2.17;;
13475;SDS011;6810;63.824;20.288;2023-07-29T02:10:38;3.07;;;2.07;;
13475;SDS011;6810;63.824;20.288;2023-07-29T02:13:25;2.90;;;2.20;;
13475;SDS011;6810;63.824;20.288;2023-07-29T02:16:12;4.93;;;2.57;;
13475;SDS011;6810;63.824;20.288;2023-07-29T02:18:59;2.43;;;2.23;;
13475;SDS011;6810;63.824;20.288;2023-07-29T02:21:46;2.63;;;1.97;;
13475;SDS011;6810;63.824;20.288;2023-07-29T02:24:33;2.30;;;2.10;;
13475;SDS011;6810;63.824;20.288;2023-07-29T02:27:20;3.30;;;2.00;;
13475;SDS011;6810;63.824;20.288;2023-07-29T02:30:08;2.93;;;2.10;;
13475;SDS011;6810;63.824;20.288;2023-07-29T02:32:55;2.40;;;2.20;;
13475;SDS011;6810;63.824;20.288;2023-07-29T02:35:42;2.97;;;2.20;;
13475;SDS011;6810;63.824;20.288;2023-07-29T02:38:29;2.23;;;1.83;;
13475;SDS011;6810;63.824;20.288;2023-07-29T02:41:16;1.90;;;1.80;;
13475;SDS011;6810;63.824;20.288;2023-07-29T02:44:04;2.23;;;2.00;;
13475;SDS011;6810;63.824;20.288;2023-07-29T02:46:51;2.63;;;2.03;;
13475;SDS011;6810;63.824;20.288;2023-07-29T02:49:39;2.80;;;1.90;;
13475;SDS011;6810;63.824;20.288;2023-07-29T02:52:26;2.40;;;2.20;;
13475;SDS011;6810;63.824;20.288;2023-07-29T02:55:17;2.00;;;1.80;;
13475;SDS011;6810;63.824;20.288;2023-07-29T02:58:04;3.10;;;2.07;;
13475;SDS011;6810;63.824;20.288;2023-07-29T03:00:51;2.30;;;1.87;;
13475;SDS011;6810;63.824;20.288;2023-07-29T03:03:39;1.83;;;1.63;;
13475;SDS011;6810;63.824;20.288;2023-07-29T03:06:26;3.07;;;1.90;;
13475;SDS011;6810;63.824;20.288;2023-07-29T03:09:14;2.77;;;2.20;;
13475;SDS011;6810;63.824;20.288;2023-07-29T03:12:01;2.30;;;1.93;;
13475;SDS011;6810;63.824;20.288;2023-07-29T03:14:48;2.00;;;1.90;;
13475;SDS011;6810;63.824;20.288;2023-07-29T03:17:36;2.80;;;2.17;;
13475;SDS011;6810;63.824;20.288;2023-07-29T03:20:23;3.03;;;2.50;;
13475;SDS011;6810;63.824;20.288;2023-07-29T03:23:10;3.57;;;2.10;;
13475;SDS011;6810;63.824;20.288;2023-07-29T03:25:57;4.67;;;1.97;;
13475;SDS011;6810;63.824;20.288;2023-07-29T03:28:45;2.10;;;1.90;;
13475;SDS011;6810;63.824;20.288;2023-07-29T03:31:32;2.00;;;1.67;;
13475;SDS011;6810;63.824;20.288;2023-07-29T03:34:19;2.50;;;2.30;;
13475;SDS011;6810;63.824;20.288;2023-07-29T03:37:06;1.80;;;1.70;;
13475;SDS011;6810;63.824;20.288;2023-07-29T03:39:53;2.07;;;1.97;;
13475;SDS011;6810;63.824;20.288;2023-07-29T03:42:40;2.13;;;2.00;;
13475;SDS011;6810;63.824;20.288;2023-07-29T03:45:27;2.50;;;1.90;;
13475;SDS011;6810;63.824;20.288;2023-07-29T03:48:15;1.97;;;1.87;;
13475;SDS011;6810;63.824;20.288;2023-07-29T03:51:02;2.27;;;1.90;;
13475;SDS011;6810;63.824;20.288;2023-07-29T03:53:49;2.40;;;2.20;;
13475;SDS011;6810;63.824;20.288;2023-07-29T03:56:36;2.53;;;2.23;;
13475;SDS011;6810;63.824;20.288;2023-07-29T03:59:23;3.57;;;2.20;;
13475;SDS011;6810;63.824;20.288;2023-07-29T04:02:11;2.53;;;2.33;;
13475;SDS011;6810;63.824;20.288;2023-07-29T04:04:58;3.03;;;2.20;;
13475;SDS011;6810;63.824;20.288;2023-07-29T04:07:46;2.23;;;1.83;;
13475;SDS011;6810;63.824;20.288;2023-07-29T04:10:33;2.10;;;1.83;;
13475;SDS011;6810;63.824;20.288;2023-07-29T04:13:20;2.60;;;2.40;;
13475;SDS011;6810;63.824;20.288;2023-07-29T04:16:07;2.17;;;2.07;;
13475;SDS011;6810;63.824;20.288;2023-07-29T04:18:54;3.10;;;2.20;;
13475;SDS011;6810;63.824;20.288;2023-07-29T04:21:41;2.37;;;2.17;;
13475;SDS011;6810;63.824;20.288;2023-07-29T04:24:28;2.90;;;2.00;;
13475;SDS011;6810;63.824;20.288;2023-07-29T04:27:15;2.83;;;2.63;;
13475;SDS011;6810;63.824;20.288;2023-07-29T04:30:03;3.03;;;2.30;;
13475;SDS011;6810;63.824;20.288;2023-07-29T04:32:50;2.47;;;2.13;;
13475;SDS011;6810;63.824;20.288;2023-07-29T04:35:37;2.63;;;2.43;;
13475;SDS011;6810;63.824;20.288;2023-07-29T04:38:30;2.37;;;2.17;;
13475;SDS011;6810;63.824;20.288;2023-07-29T04:41:18;2.57;;;2.37;;
13475;SDS011;6810;63.824;20.288;2023-07-29T04:44:05;2.50;;;2.30;;
13475;SDS011;6810;63.824;20.288;2023-07-29T04:46:53;2.43;;;2.00;;
13475;SDS011;6810;63.824;20.288;2023-07-29T04:49:40;4.20;;;2.40;;
13475;SDS011;6810;63.824;20.288;2023-07-29T04:52:27;2.60;;;2.40;;
13475;SDS011;6810;63.824;20.288;2023-07-29T04:55:15;5.20;;;2.77;;
13475;SDS011;6810;63.824;20.288;2023-07-29T04:58:02;2.70;;;2.50;;
13475;SDS011;6810;63.824;20.288;2023-07-29T05:00:49;2.80;;;2.40;;
13475;SDS011;6810;63.824;20.288;2023-07-29T05:03:36;2.63;;;2.43;;
13475;SDS011;6810;63.824;20.288;2023-07-29T05:06:23;2.97;;;2.50;;
13475;SDS011;6810;63.824;20.288;2023-07-29T05:09:17;2.90;;;2.60;;
13475;SDS011;6810;63.824;20.288;2023-07-29T05:12:05;2.80;;;2.43;;
13475;SDS011;6810;63.824;20.288;2023-07-29T05:14:53;2.60;;;2.27;;
13475;SDS011;6810;63.824;20.288;2023-07-29T05:17:40;3.43;;;2.57;;
13475;SDS011;6810;63.824;20.288;2023-07-29T05:20:27;3.93;;;2.70;;
13475;SDS011;6810;63.824;20.288;2023-07-29T05:23:14;2.80;;;2.60;;
13475;SDS011;6810;63.824;20.288;2023-07-29T05:26:01;4.97;;;2.90;;
13475;SDS011;6810;63.824;20.288;2023-07-29T05:28:48;3.10;;;2.80;;
13475;SDS011;6810;63.824;20.288;2023-07-29T05:31:35;3.33;;;2.90;;
13475;SDS011;6810;63.824;20.288;2023-07-29T05:34:23;4.70;;;3.27;;
13475;SDS011;6810;63.824;20.288;2023-07-29T05:37:10;4.50;;;2.90;;
13475;SDS011;6810;63.824;20.288;2023-07-29T05:39:57;2.97;;;2.77;;
13475;SDS011;6810;63.824;20.288;2023-07-29T05:42:44;2.93;;;2.60;;
13475;SDS011;6810;63.824;20.288;2023-07-29T05:45:31;2.83;;;2.60;;
13475;SDS011;6810;63.824;20.288;2023-07-29T05:48:19;3.10;;;2.87;;
13475;SDS011;6810;63.824;20.288;2023-07-29T05:51:06;4.00;;;3.37;;
13475;SDS011;6810;63.824;20.288;2023-07-29T05:53:54;4.00;;;2.87;;
13475;SDS011;6810;63.824;20.288;2023-07-29T05:56:41;5.73;;;2.77;;
13475;SDS011;6810;63.824;20.288;2023-07-29T05:59:29;2.87;;;2.63;;
13475;SDS011;6810;63.824;20.288;2023-07-29T06:02:16;3.13;;;2.83;;
13475;SDS011;6810;63.824;20.288;2023-07-29T06:05:03;3.17;;;2.93;;
13475;SDS011;6810;63.824;20.288;2023-07-29T06:07:51;3.07;;;2.73;;
13475;SDS011;6810;63.824;20.288;2023-07-29T06:10:38;3.47;;;3.17;;
13475;SDS011;6810;63.824;20.288;2023-07-29T06:13:25;3.27;;;2.80;;
13475;SDS011;6810;63.824;20.288;2023-07-29T06:16:13;3.50;;;2.67;;
13475;SDS011;6810;63.824;20.288;2023-07-29T06:19:01;3.17;;;2.73;;
13475;SDS011;6810;63.824;20.288;2023-07-29T06:21:48;3.23;;;2.93;;
13475;SDS011;6810;63.824;20.288;2023-07-29T06:24:35;3.73;;;3.10;;
13475;SDS011;6810;63.824;20.288;2023-07-29T06:27:23;3.17;;;2.97;;
13475;SDS011;6810;63.824;20.288;2023-07-29T06:30:10;2.83;;;2.63;;
13475;SDS011;6810;63.824;20.288;2023-07-29T06:32:57;3.27;;;3.03;;
13475;SDS011;6810;63.824;20.288;2023-07-29T06:35:45;3.57;;;2.87;;
13475;SDS011;6810;63.824;20.288;2023-07-29T06:38:32;3.20;;;2.90;;
13475;SDS011;6810;63.824;20.288;2023-07-29T06:41:19;3.33;;;3.00;;
13475;SDS011;6810;63.824;20.288;2023-07-29T06:44:06;3.10;;;2.80;;
13475;SDS011;6810;63.824;20.288;2023-07-29T06:46:53;3.60;;;3.20;;
13475;SDS011;6810;63.824;20.288;2023-07-29T06:49:40;3.40;;;3.10;;
13475;SDS011;6810;63.824;20.288;2023-07-29T06:52:27;3.53;;;3.23;;
13475;SDS011;6810;63.824;20.288;2023-07-29T06:55:14;3.63;;;3.23;;
13475;SDS011;6810;63.824;20.288;2023-07-29T06:58:01;3.80;;;3.10;;
13475;SDS011;6810;63.824;20.288;2023-07-29T07:00:48;3.30;;;3.00;;
13475;SDS011;6810;63.824;20.288;2023-07-29T07:03:35;3.33;;;3.03;;
13475;SDS011;6810;63.824;20.288;2023-07-29T07:06:23;3.23;;;3.00;;
13475;SDS011;6810;63.824;20.288;2023-07-29T07:09:10;3.70;;;3.07;;
13475;SDS011;6810;63.824;20.288;2023-07-29T07:11:57;3.30;;;2.90;;
13475;SDS011;6810;63.824;20.288;2023-07-29T07:14:44;3.53;;;2.97;;
13475;SDS011;6810;63.824;20.288;2023-07-29T07:17:31;3.30;;;3.00;;
13475;SDS011;6810;63.824;20.288;2023-07-29T07:20:18;3.70;;;3.40;;
13475;SDS011;6810;63.824;20.288;2023-07-29T07:23:05;3.57;;;3.10;;
13475;SDS011;6810;63.824;20.288;2023-07-29T07:25:52;3.57;;;3.27;;
13475;SDS011;6810;63.824;20.288;2023-07-29T07:28:39;4.00;;;3.13;;
13475;SDS011;6810;63.824;20.288;2023-07-29T07:31:26;3.77;;;3.47;;
13475;SDS011;6810;63.824;20.288;2023-07-29T07:34:13;3.57;;;3.23;;
13475;SDS011;6810;63.824;20.288;2023-07-29T07:37:00;3.43;;;3.20;;
13475;SDS011;6810;63.824;20.288;2023-07-29T07:39:47;3.97;;;3.43;;
13475;SDS011;6810;63.824;20.288;2023-07-29T07:42:34;3.87;;;3.57;;
13475;SDS011;6810;63.824;20.288;2023-07-29T07:45:21;3.90;;;3.60;;
13475;SDS011;6810;63.824;20.288;2023-07-29T07:48:09;3.83;;;3.50;;
13475;SDS011;6810;63.824;20.288;2023-07-29T07:50:56;4.27;;;3.87;;
13475;SDS011;6810;63.824;20.288;2023-07-29T07:53:43;3.93;;;3.50;;
13475;SDS011;6810;63.824;20.288;2023-07-29T07:56:30;4.00;;;3.60;;
13475;SDS011;6810;63.824;20.288;2023-07-29T07:59:17;4.10;;;3.80;;
13475;SDS011;6810;63.824;20.288;2023-07-29T08:02:04;4.53;;;3.47;;
13475;SDS011;6810;63.824;20.288;2023-07-29T08:04:51;3.80;;;3.50;;
13475;SDS011;6810;63.824;20.288;2023-07-29T08:07:38;3.90;;;3.60;;
13475;SDS011;6810;63.824;20.288;2023-07-29T08:10:25;3.50;;;3.23;;
13475;SDS011;6810;63.824;20.288;2023-07-29T08:13:12;3.50;;;3.20;;
13475;SDS011;6810;63.824;20.288;2023-07-29T08:15:59;3.43;;;3.13;;
13475;SDS011;6810;63.824;20.288;2023-07-29T08:18:47;4.07;;;3.77;;
13475;SDS011;6810;63.824;20.288;2023-07-29T08:21:34;3.47;;;3.17;;
13475;SDS011;6810;63.824;20.288;2023-07-29T08:24:21;3.80;;;3.40;;
13475;SDS011;6810;63.824;20.288;2023-07-29T08:27:08;3.50;;;3.20;;
13475;SDS011;6810;63.824;20.288;2023-07-29T08:29:55;4.03;;;3.63;;
13475;SDS011;6810;63.824;20.288;2023-07-29T08:32:42;3.47;;;3.17;;
13475;SDS011;6810;63.824;20.288;2023-07-29T08:35:29;3.43;;;3.13;;
13475;SDS011;6810;63.824;20.288;2023-07-29T08:38:17;3.83;;;3.13;;
13475;SDS011;6810;63.824;20.288;2023-07-29T08:41:14;3.67;;;3.20;;
13475;SDS011;6810;63.824;20.288;2023-07-29T08:47:11;3.40;;;3.10;;
13475;SDS011;6810;63.824;20.288;2023-07-29T08:50:02;3.20;;;2.90;;
13475;SDS011;6810;63.824;20.288;2023-07-29T08:52:50;3.40;;;3.10;;
13475;SDS011;6810;63.824;20.288;2023-07-29T08:55:39;3.10;;;2.90;;
13475;SDS011;6810;63.824;20.288;2023-07-29T08:58:26;3.30;;;3.00;;
13475;SDS011;6810;63.824;20.288;2023-07-29T09:01:13;3.57;;;3.00;;
13475;SDS011;6810;63.824;20.288;2023-07-29T09:03:42;3.10;;;2.90;;
13475;SDS011;6810;63.824;20.288;2023-07-29T09:06:09;2.57;;;2.37;;
13475;SDS011;6810;63.824;20.288;2023-07-29T09:08:37;3.10;;;2.80;;
13475;SDS011;6810;63.824;20.288;2023-07-29T09:11:04;2.70;;;2.50;;
13475;SDS011;6810;63.824;20.288;2023-07-29T09:13:32;2.93;;;2.73;;
13475;SDS011;6810;63.824;20.288;2023-07-29T09:16:00;3.10;;;2.80;;
13475;SDS011;6810;63.824;20.288;2023-07-29T09:18:27;3.03;;;2.73;;
13475;SDS011;6810;63.824;20.288;2023-07-29T09:20:55;3.50;;;2.77;;
13475;SDS011;6810;63.824;20.288;2023-07-29T09:23:26;4.17;;;2.80;;
13475;SDS011;6810;63.824;20.288;2023-07-29T09:26:01;4.90;;;2.53;;
13475;SDS011;6810;63.824;20.288;2023-07-29T09:28:32;2.60;;;2.20;;
13475;SDS011;6810;63.824;20.288;2023-07-29T09:31:01;3.00;;;2.80;;
13475;SDS011;6810;63.824;20.288;2023-07-29T09:33:29;2.83;;;2.17;;
13475;SDS011;6810;63.824;20.288;2023-07-29T09:36:01;3.03;;;2.70;;
13475;SDS011;6810;63.824;20.288;2023-07-29T09:38:35;2.70;;;2.50;;
13475;SDS011;6810;63.824;20.288;2023-07-29T09:41:02;2.73;;;2.53;;
13475;SDS011;6810;63.824;20.288;2023-07-29T09:43:30;2.73;;;2.53;;
13475;SDS011;6810;63.824;20.288;2023-07-29T09:46:02;3.10;;;2.10;;
13475;SDS011;6810;63.824;20.288;2023-07-29T09:48:34;2.80;;;2.60;;
13475;SDS011;6810;63.824;20.288;2023-07-29T09:51:11;2.60;;;2.40;;
13475;SDS011;6810;63.824;20.288;2023-07-29T09:53:46;2.60;;;2.40;;
13475;SDS011;6810;63.824;20.288;2023-07-29T09:56:14;2.30;;;2.20;;
13475;SDS011;6810;63.824;20.288;2023-07-29T09:58:43;2.50;;;2.30;;
13475;SDS011;6810;63.824;20.288;2023-07-29T10:01:12;2.20;;;2.10;;
13475;SDS011;6810;63.824;20.288;2023-07-29T10:03:40;2.37;;;2.17;;
13475;SDS011;6810;63.824;20.288;2023-07-29T10:06:09;2.67;;;2.47;;
13475;SDS011;6810;63.824;20.288;2023-07-29T10:08:37;3.40;;;2.73;;
13475;SDS011;6810;63.824;20.288;2023-07-29T10:11:06;2.43;;;2.33;;
13475;SDS011;6810;63.824;20.288;2023-07-29T10:13:35;2.70;;;2.50;;
13475;SDS011;6810;63.824;20.288;2023-07-29T10:16:03;2.03;;;1.93;;
13475;SDS011;6810;63.824;20.288;2023-07-29T10:18:32;2.60;;;2.40;;
13475;SDS011;6810;63.824;20.288;2023-07-29T10:21:01;2.60;;;2.40;;
13475;SDS011;6810;63.824;20.288;2023-07-29T10:23:31;2.50;;;2.33;;
13475;SDS011;6810;63.824;20.288;2023-07-29T10:26:04;2.40;;;2.20;;
13475;SDS011;6810;63.824;20.288;2023-07-29T10:28:33;3.83;;;2.30;;
13475;SDS011;6810;63.824;20.288;2023-07-29T10:31:07;2.60;;;2.40;;
13475;SDS011;6810;63.824;20.288;2023-07-29T10:33:34;2.37;;;2.20;;
13475;SDS011;6810;63.824;20.288;2023-07-29T10:36:01;2.20;;;2.00;;
13475;SDS011;6810;63.824;20.288;2023-07-29T10:38:29;3.30;;;2.50;;
13475;SDS011;6810;63.824;20.288;2023-07-29T10:40:57;2.33;;;2.13;;
13475;SDS011;6810;63.824;20.288;2023-07-29T10:43:34;2.93;;;2.23;;
13475;SDS011;6810;63.824;20.288;2023-07-29T10:46:17;2.47;;;2.27;;
13475;SDS011;6810;63.824;20.288;2023-07-29T10:48:55;2.07;;;1.97;;
13475;SDS011;6810;63.824;20.288;2023-07-29T10:51:28;2.60;;;2.40;;
13475;SDS011;6810;63.824;20.288;2023-07-29T10:54:11;2.80;;;2.60;;
13475;SDS011;6810;63.824;20.288;2023-07-29T10:56:41;2.60;;;2.40;;
13475;SDS011;6810;63.824;20.288;2023-07-29T11:01:43;2.27;;;2.17;;
13475;SDS011;6810;63.824;20.288;2023-07-29T11:09:40;2.37;;;2.17;;
13475;SDS011;6810;63.824;20.288;2023-07-29T11:17:40;2.90;;;2.43;;
13475;SDS011;6810;63.824;20.288;2023-07-29T11:20:16;2.37;;;2.20;;
13475;SDS011;6810;63.824;20.288;2023-07-29T11:22:44;2.63;;;2.40;;
13475;SDS011;6810;63.824;20.288;2023-07-29T11:25:12;2.20;;;2.10;;
13475;SDS011;6810;63.824;20.288;2023-07-29T11:27:41;2.57;;;2.37;;
13475;SDS011;6810;63.824;20.288;2023-07-29T11:30:12;3.07;;;2.47;;
13475;SDS011;6810;63.824;20.288;2023-07-29T11:32:41;2.53;;;2.23;;
13475;SDS011;6810;63.824;20.288;2023-07-29T11:35:14;2.43;;;2.23;;
13475;SDS011;6810;63.824;20.288;2023-07-29T11:37:46;3.03;;;1.87;;
13475;SDS011;6810;63.824;20.288;2023-07-29T11:40:15;2.80;;;2.60;;
13475;SDS011;6810;63.824;20.288;2023-07-29T11:42:44;2.70;;;2.50;;
13475;SDS011;6810;63.824;20.288;2023-07-29T11:45:12;2.47;;;2.27;;
13475;SDS011;6810;63.824;20.288;2023-07-29T11:47:44;2.80;;;2.60;;
13475;SDS011;6810;63.824;20.288;2023-07-29T11:50:12;2.33;;;2.23;;
13475;SDS011;6810;63.824;20.288;2023-07-29T11:52:43;3.07;;;2.43;;
13475;SDS011;6810;63.824;20.288;2023-07-29T11:55:12;2.70;;;2.50;;
13475;SDS011;6810;63.824;20.288;2023-07-29T11:57:41;3.07;;;2.33;;
13475;SDS011;6810;63.824;20.288;2023-07-29T12:00:09;3.00;;;2.57;;
13475;SDS011;6810;63.824;20.288;2023-07-29T12:02:40;3.00;;;2.80;;
13475;SDS011;6810;63.824;20.288;2023-07-29T12:05:08;2.73;;;2.30;;
13475;SDS011;6810;63.824;20.288;2023-07-29T12:07:40;2.50;;;2.30;;
13475;SDS011;6810;63.824;20.288;2023-07-29T12:10:09;2.37;;;2.17;;
13475;SDS011;6810;63.824;20.288;2023-07-29T12:12:38;2.70;;;2.50;;
13475;SDS011;6810;63.824;20.288;2023-07-29T12:15:12;2.30;;;2.10;;
13475;SDS011;6810;63.824;20.288;2023-07-29T12:17:39;2.40;;;2.00;;
13475;SDS011;6810;63.824;20.288;2023-07-29T12:20:08;1.97;;;1.83;;
13475;SDS011;6810;63.824;20.288;2023-07-29T12:22:37;3.43;;;2.10;;
13475;SDS011;6810;63.824;20.288;2023-07-29T12:25:04;2.43;;;2.23;;
13475;SDS011;6810;63.824;20.288;2023-07-29T12:27:31;2.43;;;2.20;;
13475;SDS011;6810;63.824;20.288;2023-07-29T12:30:00;2.37;;;2.27;;
13475;SDS011;6810;63.824;20.288;2023-07-29T12:32:31;2.13;;;2.03;;
13475;SDS011;6810;63.824;20.288;2023-07-29T12:34:58;2.00;;;1.90;;
13475;SDS011;6810;63.824;20.288;2023-07-29T12:37:32;2.70;;;2.50;;
13475;SDS011;6810;63.824;20.288;2023-07-29T12:39:59;2.53;;;1.93;;
13475;SDS011;6810;63.824;20.288;2023-07-29T12:42:27;3.00;;;2.20;;
13475;SDS011;6810;63.824;20.288;2023-07-29T12:44:54;2.20;;;2.00;;
13475;SDS011;6810;63.824;20.288;2023-07-29T12:47:21;2.43;;;2.13;;
13475;SDS011;6810;63.824;20.288;2023-07-29T12:49:48;2.30;;;2.20;;
13475;SDS011;6810;63.824;20.288;2023-07-29T12:52:15;2.30;;;2.10;;
13475;SDS011;6810;63.824;20.288;2023-07-29T12:54:42;2.60;;;2.40;;
13475;SDS011;6810;63.824;20.288;2023-07-29T12:57:11;2.40;;;2.07;;
13475;SDS011;6810;63.824;20.288;2023-07-29T12:59:38;2.30;;;2.10;;
13475;SDS011;6810;63.824;20.288;2023-07-29T13:02:05;2.60;;;2.40;;
13475;SDS011;6810;63.824;20.288;2023-07-29T13:04:33;1.90;;;1.80;;
13475;SDS011;6810;63.824;20.288;2023-07-29T13:07:00;2.93;;;2.53;;
13475;SDS011;6810;63.824;20.288;2023-07-29T13:09:28;2.40;;;2.20;;
13475;SDS011;6810;63.824;20.288;2023-07-29T13:11:55;2.23;;;2.07;;
13475;SDS011;6810;63.824;20.288;2023-07-29T13:14:22;2.00;;;1.90;;
13475;SDS011;6810;63.824;20.288;2023-07-29T13:16:49;2.20;;;2.10;;
13475;SDS011;6810;63.824;20.288;2023-07-29T13:19:16;2.17;;;2.00;;
13475;SDS011;6810;63.824;20.288;2023-07-29T13:21:44;2.83;;;2.40;;
13475;SDS011;6810;63.824;20.288;2023-07-29T13:24:11;2.40;;;2.17;;
13475;SDS011;6810;63.824;20.288;2023-07-29T13:26:39;2.60;;;2.40;;
13475;SDS011;6810;63.824;20.288;2023-07-29T13:29:06;2.33;;;2.10;;
13475;SDS011;6810;63.824;20.288;2023-07-29T13:31:35;1.90;;;1.80;;
13475;SDS011;6810;63.824;20.288;2023-07-29T13:34:03;2.47;;;2.27;;
13475;SDS011;6810;63.824;20.288;2023-07-29T13:36:29;2.60;;;2.10;;
13475;SDS011;6810;63.824;20.288;2023-07-29T13:38:57;2.60;;;2.10;;
13475;SDS011;6810;63.824;20.288;2023-07-29T13:41:24;1.80;;;1.70;;
13475;SDS011;6810;63.824;20.288;2023-07-29T13:43:51;2.50;;;2.30;;
13475;SDS011;6810;63.824;20.288;2023-07-29T13:46:18;2.40;;;2.30;;
13475;SDS011;6810;63.824;20.288;2023-07-29T13:48:48;2.23;;;2.07;;
13475;SDS011;6810;63.824;20.288;2023-07-29T13:51:15;2.20;;;2.00;;
13475;SDS011;6810;63.824;20.288;2023-07-29T13:53:43;2.20;;;2.10;;
13475;SDS011;6810;63.824;20.288;2023-07-29T13:56:10;3.27;;;2.30;;
13475;SDS011;6810;63.824;20.288;2023-07-29T13:58:37;3.30;;;2.20;;
13475;SDS011;6810;63.824;20.288;2023-07-29T14:01:04;3.50;;;2.17;;
13475;SDS011;6810;63.824;20.288;2023-07-29T14:03:31;2.00;;;1.90;;
13475;SDS011;6810;63.824;20.288;2023-07-29T14:05:58;2.57;;;2.07;;
13475;SDS011;6810;63.824;20.288;2023-07-29T14:08:25;2.23;;;2.03;;
13475;SDS011;6810;63.824;20.288;2023-07-29T14:10:52;2.63;;;2.43;;
13475;SDS011;6810;63.824;20.288;2023-07-29T14:13:19;2.30;;;2.20;;
13475;SDS011;6810;63.824;20.288;2023-07-29T14:15:46;2.50;;;2.30;;
13475;SDS011;6810;63.824;20.288;2023-07-29T14:18:13;2.17;;;2.07;;
13475;SDS011;6810;63.824;20.288;2023-07-29T14:20:40;2.33;;;2.13;;
13475;SDS011;6810;63.824;20.288;2023-07-29T14:23:07;2.30;;;2.10;;
13475;SDS011;6810;63.824;20.288;2023-07-29T14:25:34;2.60;;;2.10;;
13475;SDS011;6810;63.824;20.288;2023-07-29T14:28:01;2.60;;;2.40;;
13475;SDS011;6810;63.824;20.288;2023-07-29T14:30:29;2.20;;;2.00;;
13475;SDS011;6810;63.824;20.288;2023-07-29T14:32:56;2.43;;;2.10;;
13475;SDS011;6810;63.824;20.288;2023-07-29T14:35:23;2.30;;;2.10;;
13475;SDS011;6810;63.824;20.288;2023-07-29T14:37:50;1.73;;;1.63;;
13475;SDS011;6810;63.824;20.288;2023-07-29T14:40:17;2.20;;;2.00;;
13475;SDS011;6810;63.824;20.288;2023-07-29T14:42:44;2.20;;;2.00;;
13475;SDS011;6810;63.824;20.288;2023-07-29T14:45:11;2.43;;;2.30;;
13475;SDS011;6810;63.824;20.288;2023-07-29T14:47:38;1.90;;;1.80;;
13475;SDS011;6810;63.824;20.288;2023-07-29T14:50:05;2.20;;;2.00;;
13475;SDS011;6810;63.824;20.288;2023-07-29T14:52:33;2.00;;;1.90;;
13475;SDS011;6810;63.824;20.288;2023-07-29T14:55:00;2.60;;;2.40;;
13475;SDS011;6810;63.824;20.288;2023-07-29T14:57:27;2.10;;;1.90;;
13475;SDS011;6810;63.824;20.288;2023-07-29T14:59:54;2.60;;;2.10;;
13475;SDS011;6810;63.824;20.288;2023-07-29T15:02:21;2.20;;;2.00;;
13475;SDS011;6810;63.824;20.288;2023-07-29T15:04:49;2.20;;;1.80;;
13475;SDS011;6810;63.824;20.288;2023-07-29T15:07:16;2.03;;;1.93;;
13475;SDS011;6810;63.824;20.288;2023-07-29T15:09:43;2.23;;;2.13;;
13475;SDS011;6810;63.824;20.288;2023-07-29T15:12:10;1.90;;;1.80;;
13475;SDS011;6810;63.824;20.288;2023-07-29T15:14:37;2.07;;;1.97;;
13475;SDS011;6810;63.824;20.288;2023-07-29T15:17:05;2.07;;;1.97;;
13475;SDS011;6810;63.824;20.288;2023-07-29T15:19:33;2.00;;;1.90;;
13475;SDS011;6810;63.824;20.288;2023-07-29T15:22:00;2.03;;;1.63;;
13475;SDS011;6810;63.824;20.288;2023-07-29T15:24:28;1.97;;;1.87;;
13475;SDS011;6810;63.824;20.288;2023-07-29T15:26:57;2.13;;;1.70;;
13475;SDS011;6810;63.824;20.288;2023-07-29T15:29:24;1.90;;;1.80;;
13475;SDS011;6810;63.824;20.288;2023-07-29T15:31:51;1.97;;;1.67;;
13475;SDS011;6810;63.824;20.288;2023-07-29T15:34:19;2.00;;;1.67;;
13475;SDS011;6810;63.824;20.288;2023-07-29T15:36:46;2.20;;;2.00;;
13475;SDS011;6810;63.824;20.288;2023-07-29T15:39:14;1.77;;;1.67;;
13475;SDS011;6810;63.824;20.288;2023-07-29T15:41:41;1.60;;;1.50;;
13475;SDS011;6810;63.824;20.288;2023-07-29T15:44:08;2.00;;;1.80;;
13475;SDS011;6810;63.824;20.288;2023-07-29T15:46:35;1.80;;;1.70;;
13475;SDS011;6810;63.824;20.288;2023-07-29T15:49:03;1.80;;;1.70;;
13475;SDS011;6810;63.824;20.288;2023-07-29T15:51:31;2.33;;;1.80;;
13475;SDS011;6810;63.824;20.288;2023-07-29T15:53:58;1.97;;;1.87;;
13475;SDS011;6810;63.824;20.288;2023-07-29T15:56:29;2.27;;;2.00;;
13475;SDS011;6810;63.824;20.288;2023-07-29T15:58:57;1.90;;;1.80;;
13475;SDS011;6810;63.824;20.288;2023-07-29T16:01:24;2.00;;;1.90;;
13475;SDS011;6810;63.824;20.288;2023-07-29T16:03:51;2.47;;;2.27;;
13475;SDS011;6810;63.824;20.288;2023-07-29T16:06:18;2.00;;;1.90;;
13475;SDS011;6810;63.824;20.288;2023-07-29T16:08:45;2.20;;;1.90;;
13475;SDS011;6810;63.824;20.288;2023-07-29T16:11:12;2.93;;;2.00;;
13475;SDS011;6810;63.824;20.288;2023-07-29T16:13:39;1.90;;;1.80;;
13475;SDS011;6810;63.824;20.288;2023-07-29T16:16:07;2.10;;;2.00;;
13475;SDS011;6810;63.824;20.288;2023-07-29T16:18:34;1.87;;;1.50;;